St Georges Chan, Ireland
Current Conditions -  °F | °C
As of 11:30 AM on Sunday 21 Dec 2014 (Local Time) from EIWF Reporting Station
Drizzle Drizzle  
Wind Chill: 50°   Ceiling: 200
Heat Index: 50°   Visibility: 1.2mi
Dew Point: 50°   Wind: 21mph
Humidity: 100%   Direction: 240°WSW
Pressure: 30.24"   Gusts: 32mph
Location:  52°N, 5.83°W
Report Text: EIWF 211030Z 24018G28KT 200V290 2000 DZ BKN002 10/10 Q1024 R21/1/////
Loading
Personal Weather Stations






























Interactive Weather Map New forecast layout! Learn more

10-Day Weather Forecast

Advertisements
Track Severe Weather on mobile